createdAt,value
2022-12-11T00:02:40.682Z,97127.22
2022-12-11T00:05:48.148Z,97118.31
2022-12-11T00:08:56.529Z,97113.31
2022-12-11T00:12:02.634Z,97109.59
2022-12-11T00:15:12.027Z,97096.63
2022-12-11T00:18:20.484Z,97091.59
2022-12-11T00:21:26.767Z,97094.69
2022-12-11T00:24:33.658Z,97084.91
2022-12-11T00:27:40.302Z,97088.06
2022-12-11T00:30:46.452Z,97091.13
2022-12-11T00:33:55.564Z,97092.38
2022-12-11T00:37:01.914Z,97088.78
2022-12-11T00:40:10.230Z,97091.03
2022-12-11T00:43:17.254Z,97084.69
2022-12-11T00:46:23.746Z,97074.56
2022-12-11T00:49:32.245Z,97086.47
2022-12-11T00:52:39.020Z,97083.69
2022-12-11T00:55:46.522Z,97079.00
2022-12-11T00:58:53.045Z,97076.75
2022-12-11T01:01:58.833Z,97092.53
2022-12-11T01:05:09.579Z,97091.16
2022-12-11T01:08:15.194Z,97097.00
2022-12-11T01:11:21.626Z,97090.34
2022-12-11T01:14:27.315Z,97082.84
2022-12-11T01:17:33.839Z,97081.88
2022-12-11T01:20:45.305Z,97069.66
2022-12-11T01:23:54.052Z,97079.16
2022-12-11T01:26:59.688Z,97075.91
2022-12-11T01:30:08.078Z,97076.91
2022-12-11T01:33:13.752Z,97070.19
2022-12-11T01:36:25.157Z,97064.84
2022-12-11T01:39:31.007Z,97056.09
2022-12-11T01:42:38.436Z,97059.03
2022-12-11T01:45:47.559Z,97060.25
2022-12-11T01:48:54.143Z,97062.22
2022-12-11T01:52:10.728Z,97066.09
2022-12-11T01:55:18.129Z,97057.97
2022-12-11T01:58:29.689Z,97058.94
2022-12-11T02:01:42.948Z,97060.41
2022-12-11T02:04:51.199Z,97062.38
2022-12-11T02:08:06.030Z,97056.72
2022-12-11T02:11:26.103Z,97067.38
2022-12-11T02:14:46.286Z,97053.03
2022-12-11T02:18:03.011Z,97064.69
2022-12-11T02:21:23.596Z,97065.16
2022-12-11T02:25:07.122Z,97062.38
2022-12-11T02:28:28.354Z,97058.16
2022-12-11T02:31:44.331Z,97063.84
2022-12-11T02:35:05.839Z,97063.34
2022-12-11T02:38:21.031Z,97068.63
2022-12-11T02:41:31.838Z,97064.84
2022-12-11T02:44:43.457Z,97054.00
2022-12-11T02:47:53.415Z,97035.19
2022-12-11T02:51:04.104Z,97035.56
2022-12-11T02:54:16.672Z,97040.03
2022-12-11T02:57:34.358Z,97041.16
2022-12-11T03:00:42.870Z,97038.34
2022-12-11T03:03:49.333Z,97037.22
2022-12-11T03:07:01.635Z,97037.00
2022-12-11T03:10:12.286Z,97017.81
2022-12-11T03:13:25.612Z,97037.78
2022-12-11T03:16:41.312Z,97039.44
2022-12-11T03:19:58.604Z,97040.53
2022-12-11T03:23:21.917Z,97051.22
2022-12-11T03:26:29.922Z,97048.16
2022-12-11T03:29:45.525Z,97043.44
2022-12-11T03:33:01.822Z,97039.44
2022-12-11T03:36:14.613Z,97032.03
2022-12-11T03:39:30.696Z,97035.84
2022-12-11T03:42:39.908Z,97032.28
2022-12-11T03:45:49.315Z,97025.81
2022-12-11T03:49:06.744Z,97023.06
2022-12-11T03:52:17.437Z,97013.81
2022-12-11T03:55:27.841Z,97021.59
2022-12-11T03:58:33.541Z,97018.50
2022-12-11T04:01:40.051Z,97023.69
2022-12-11T04:04:48.193Z,97013.78
2022-12-11T04:07:54.468Z,97012.59
2022-12-11T04:11:12.468Z,97006.91
2022-12-11T04:14:31.155Z,97011.94
2022-12-11T04:17:52.034Z,97001.09
2022-12-11T04:21:13.088Z,97001.06
2022-12-11T04:24:18.608Z,97014.66
2022-12-11T04:27:49.530Z,97000.72
2022-12-11T04:30:55.094Z,96996.84
2022-12-11T04:34:01.737Z,97005.63
2022-12-11T04:37:09.849Z,96998.31
2022-12-11T04:40:20.805Z,96992.78
2022-12-11T04:43:26.244Z,97000.88
2022-12-11T04:46:33.404Z,96984.97
2022-12-11T04:49:39.064Z,96988.97
2022-12-11T04:52:47.962Z,96998.03
2022-12-11T04:55:53.518Z,97002.03
2022-12-11T04:58:59.814Z,97000.06
2022-12-11T05:02:05.411Z,96995.19
2022-12-11T05:05:14.643Z,96997.78
2022-12-11T05:08:24.365Z,96999.41
2022-12-11T05:11:30.829Z,96991.34
2022-12-11T05:14:36.256Z,96991.34
2022-12-11T05:17:42.714Z,96993.00
2022-12-11T05:20:48.858Z,96987.66
2022-12-11T05:23:57.805Z,96988.94
2022-12-11T05:27:03.318Z,96983.25
2022-12-11T05:30:12.203Z,96983.38
2022-12-11T05:33:18.095Z,96969.00
2022-12-11T05:36:28.264Z,96978.06
2022-12-11T05:39:36.457Z,96983.34
2022-12-11T05:42:42.761Z,96978.03
2022-12-11T05:45:48.247Z,96981.59
2022-12-11T05:48:58.619Z,96981.59
2022-12-11T05:52:04.087Z,96981.13
2022-12-11T05:55:13.768Z,96980.31
2022-12-11T05:58:19.331Z,96985.19
2022-12-11T06:01:29.512Z,96989.28
2022-12-11T06:04:35.003Z,96985.84
2022-12-11T06:07:41.284Z,96991.19
2022-12-11T06:10:53.033Z,96986.16
2022-12-11T06:14:00.047Z,96982.84
2022-12-11T06:17:05.591Z,96987.41
2022-12-11T06:20:13.066Z,96995.47
2022-12-11T06:23:18.703Z,96999.47
2022-12-11T06:26:29.515Z,96993.50
2022-12-11T06:29:35.109Z,96995.28
2022-12-11T06:32:41.457Z,96999.41
2022-12-11T06:35:46.958Z,97006.16
2022-12-11T06:38:53.403Z,96997.50
2022-12-11T06:42:01.375Z,97006.13
2022-12-11T06:45:09.578Z,97010.31
2022-12-11T06:48:15.413Z,97013.69
2022-12-11T06:51:25.517Z,97014.16
2022-12-11T06:54:31.307Z,97010.97
2022-12-11T06:57:40.347Z,97003.41
2022-12-11T07:00:46.228Z,97005.09
2022-12-11T07:03:55.468Z,97010.66
2022-12-11T07:07:01.065Z,97015.59
2022-12-11T07:10:08.858Z,97012.22
2022-12-11T07:13:17.011Z,97017.75
2022-12-11T07:16:23.365Z,97018.38
2022-12-11T07:19:29.753Z,97013.63
2022-12-11T07:22:37.596Z,97015.06
2022-12-11T07:25:46.461Z,97012.66
2022-12-11T07:28:56.208Z,97008.84
2022-12-11T07:32:01.795Z,97018.66
2022-12-11T07:35:09.651Z,97017.75
2022-12-11T07:38:15.620Z,97026.97
2022-12-11T07:41:22.152Z,97034.44
2022-12-11T07:44:34.630Z,97038.09
2022-12-11T07:47:42.972Z,97033.06
2022-12-11T07:50:48.760Z,97029.72
2022-12-11T07:53:57.494Z,97035.75
2022-12-11T07:57:03.232Z,97036.00
2022-12-11T08:00:14.491Z,97037.34
2022-12-11T08:03:20.039Z,97035.97
2022-12-11T08:06:31.318Z,97028.94
2022-12-11T08:09:37.034Z,97024.31
2022-12-11T08:12:43.330Z,97024.72
2022-12-11T08:15:51.470Z,97030.72
2022-12-11T08:18:58.351Z,97032.31
2022-12-11T08:22:03.798Z,97028.78
2022-12-11T08:25:11.639Z,97033.75
2022-12-11T08:28:17.310Z,97034.41
2022-12-11T08:31:26.986Z,97030.63
2022-12-11T08:34:32.666Z,97027.72
2022-12-11T08:37:39.232Z,97035.47
2022-12-11T08:40:44.961Z,97027.88
2022-12-11T08:43:55.045Z,97038.31
2022-12-11T08:47:05.576Z,97043.72
2022-12-11T08:50:13.837Z,97037.47
2022-12-11T08:53:19.388Z,97045.50
2022-12-11T08:56:26.570Z,97046.88
2022-12-11T08:59:31.995Z,97047.06
2022-12-11T09:02:40.957Z,97042.03
2022-12-11T09:05:46.568Z,97037.66
2022-12-11T09:08:56.279Z,97018.91
2022-12-11T09:12:02.152Z,97027.88
2022-12-11T09:15:10.281Z,97020.63
2022-12-11T09:18:18.735Z,97024.72
2022-12-11T09:21:29.838Z,97022.47
2022-12-11T09:24:35.548Z,97025.75
2022-12-11T09:27:41.801Z,97031.03
2022-12-11T09:30:47.278Z,97033.38
2022-12-11T09:34:00.278Z,97017.31
2022-12-11T09:37:05.700Z,97027.09
2022-12-11T09:40:15.240Z,97032.56
2022-12-11T09:43:40.961Z,97026.53
2022-12-11T09:46:51.576Z,97035.47
2022-12-11T09:50:18.464Z,97028.19
2022-12-11T09:53:35.794Z,97022.75
2022-12-11T09:56:52.964Z,97019.56
2022-12-11T10:00:31.862Z,97015.16
2022-12-11T10:04:13.430Z,97017.69
2022-12-11T10:07:40.992Z,97013.00
2022-12-11T10:11:00.016Z,97004.16
2022-12-11T10:14:23.332Z,97008.81
2022-12-11T10:17:35.278Z,97004.88
2022-12-11T10:20:43.034Z,97000.78
2022-12-11T10:24:01.060Z,97009.66
2022-12-11T10:27:21.447Z,96997.38
2022-12-11T10:30:34.716Z,97011.81
2022-12-11T10:33:59.149Z,97010.16
2022-12-11T10:37:06.086Z,97005.59
2022-12-11T10:40:16.761Z,96994.59
2022-12-11T10:43:22.766Z,96994.34
2022-12-11T10:46:33.289Z,97004.66
2022-12-11T10:49:41.889Z,97007.94
2022-12-11T10:52:48.720Z,97002.34
2022-12-11T10:55:58.197Z,96994.06
2022-12-11T10:59:07.264Z,96991.03
2022-12-11T11:02:28.967Z,96975.44
2022-12-11T11:05:38.951Z,96974.22
2022-12-11T11:08:47.841Z,96979.38
2022-12-11T11:11:56.678Z,96965.25
2022-12-11T11:15:03.768Z,96980.84
2022-12-11T11:18:27.176Z,96967.53
2022-12-11T11:21:33.095Z,96974.63
2022-12-11T11:24:45.530Z,96967.97
2022-12-11T11:28:00.998Z,96962.38
2022-12-11T11:31:12.313Z,96969.88
2022-12-11T11:34:26.303Z,96970.13
2022-12-11T11:37:37.169Z,96969.72
2022-12-11T11:40:53.957Z,96969.03
2022-12-11T11:44:10.171Z,96970.50
2022-12-11T11:47:25.393Z,96967.53
2022-12-11T11:50:39.001Z,96967.28
2022-12-11T11:53:51.189Z,96973.00
2022-12-11T11:57:02.039Z,96961.22
2022-12-11T12:00:22.776Z,96969.09
2022-12-11T12:03:31.803Z,96952.00
2022-12-11T12:07:13.563Z,96964.16
2022-12-11T12:10:32.260Z,96954.38
2022-12-11T12:13:57.191Z,96966.50
2022-12-11T12:17:26.489Z,96969.88
2022-12-11T12:20:51.063Z,96970.44
2022-12-11T12:24:17.912Z,96962.69
2022-12-11T12:27:52.219Z,96980.22
2022-12-11T12:31:24.846Z,96965.97
2022-12-11T12:34:58.446Z,96962.59
2022-12-11T12:38:17.794Z,96968.66
2022-12-11T12:41:38.104Z,96976.69
2022-12-11T12:45:01.007Z,96971.28
2022-12-11T12:48:06.631Z,96973.56
2022-12-11T12:51:19.160Z,96968.84
2022-12-11T12:54:29.109Z,96973.88
2022-12-11T12:57:37.974Z,96977.94
2022-12-11T13:00:46.904Z,96987.84
2022-12-11T13:04:01.927Z,96991.66
2022-12-11T13:07:27.308Z,96996.97
2022-12-11T13:10:38.086Z,96994.38
2022-12-11T13:13:54.506Z,96989.22
2022-12-11T13:17:31.971Z,96987.44
2022-12-11T13:20:51.201Z,96988.81
2022-12-11T13:24:26.885Z,96990.69
2022-12-11T13:27:43.685Z,97006.59
2022-12-11T13:31:26.211Z,97001.84
2022-12-11T13:34:39.357Z,97002.78
2022-12-11T13:37:49.893Z,96992.75
2022-12-11T13:41:01.091Z,97010.13
2022-12-11T13:44:11.193Z,97018.53
2022-12-11T13:47:22.699Z,97002.09
2022-12-11T13:50:34.780Z,97011.88
2022-12-11T13:53:40.241Z,97017.84
2022-12-11T13:57:02.707Z,97020.19
2022-12-11T14:00:23.510Z,97013.94
2022-12-11T14:03:30.420Z,97018.00
2022-12-11T14:06:42.200Z,97017.47
2022-12-11T14:09:49.549Z,97022.06
2022-12-11T14:13:06.912Z,97022.47
2022-12-11T14:16:26.273Z,97026.63
2022-12-11T14:19:32.230Z,97033.53
2022-12-11T14:22:38.525Z,97026.84
2022-12-11T14:25:44.013Z,97024.28
2022-12-11T14:28:54.285Z,97038.28
2022-12-11T14:32:06.342Z,97041.94
2022-12-11T14:35:34.263Z,97036.75
2022-12-11T14:38:52.217Z,97028.47
2022-12-11T14:42:07.648Z,97026.47
2022-12-11T14:45:25.681Z,97028.66
2022-12-11T14:48:40.756Z,97028.94
2022-12-11T14:51:48.005Z,97031.81
2022-12-11T14:55:03.391Z,97025.56
2022-12-11T14:58:21.809Z,97031.22
2022-12-11T15:01:34.459Z,97017.31
2022-12-11T15:04:42.516Z,97037.28
2022-12-11T15:08:03.105Z,97028.13
2022-12-11T15:11:14.266Z,97026.81
2022-12-11T15:14:25.581Z,97031.13
2022-12-11T15:17:37.350Z,97033.84
2022-12-11T15:20:44.423Z,97040.09
2022-12-11T15:23:59.249Z,97047.72
2022-12-11T15:27:06.095Z,97048.69
2022-12-11T15:30:32.881Z,97048.28
2022-12-11T15:33:51.325Z,97042.88
2022-12-11T15:36:59.230Z,97043.13
2022-12-11T15:40:08.330Z,97040.81
2022-12-11T15:43:16.208Z,97041.22
2022-12-11T15:46:23.126Z,97034.78
2022-12-11T15:49:32.624Z,97050.06
2022-12-11T15:52:39.118Z,97048.19
2022-12-11T15:55:44.853Z,97059.69
2022-12-11T15:58:53.336Z,97062.84
2022-12-11T16:01:58.920Z,97067.66
2022-12-11T16:05:08.854Z,97060.63
2022-12-11T16:08:18.749Z,97063.06
2022-12-11T16:11:25.077Z,97075.72
2022-12-11T16:14:30.545Z,97063.81
2022-12-11T16:17:39.115Z,97057.72
2022-12-11T16:20:49.085Z,97068.97
2022-12-11T16:23:55.381Z,97062.69
2022-12-11T16:27:01.562Z,97066.34
2022-12-11T16:30:10.912Z,97069.44
2022-12-11T16:33:19.228Z,97065.53
2022-12-11T16:36:28.323Z,97067.16
2022-12-11T16:39:33.979Z,97077.22
2022-12-11T16:42:41.543Z,97083.50
2022-12-11T16:45:47.066Z,97073.88
2022-12-11T16:48:53.764Z,97074.94
2022-12-11T16:52:01.788Z,97070.47
2022-12-11T16:55:10.061Z,97075.72
2022-12-11T16:58:20.160Z,97080.22
2022-12-11T17:01:26.828Z,97088.78
2022-12-11T17:04:32.778Z,97091.41
2022-12-11T17:07:41.883Z,97077.56
2022-12-11T17:10:47.469Z,97089.19
2022-12-11T17:13:58.257Z,97080.91
2022-12-11T17:17:04.049Z,97081.22
2022-12-11T17:20:13.140Z,97081.91
2022-12-11T17:23:22.314Z,97079.16
2022-12-11T17:26:28.899Z,97080.47
2022-12-11T17:29:35.094Z,97091.03
2022-12-11T17:32:41.541Z,97087.97
2022-12-11T17:35:47.318Z,97087.59
2022-12-11T17:38:57.157Z,97086.31
2022-12-11T17:42:03.275Z,97085.38
2022-12-11T17:45:11.920Z,97086.84
2022-12-11T17:48:19.342Z,97086.16
2022-12-11T17:51:29.396Z,97103.31
2022-12-11T17:54:39.361Z,97093.44
2022-12-11T17:57:45.758Z,97093.13
2022-12-11T18:00:57.161Z,97089.06
2022-12-11T18:04:04.441Z,97104.53
2022-12-11T18:07:10.142Z,97096.78
2022-12-11T18:10:20.668Z,97090.03
2022-12-11T18:13:27.699Z,97083.09
2022-12-11T18:16:38.151Z,97094.66
2022-12-11T18:19:46.221Z,97099.94
2022-12-11T18:22:53.875Z,97083.97
2022-12-11T18:26:02.296Z,97085.16
2022-12-11T18:29:09.947Z,97085.41
2022-12-11T18:32:15.763Z,97077.59
2022-12-11T18:35:23.621Z,97081.59
2022-12-11T18:38:29.322Z,97076.81
2022-12-11T18:41:38.839Z,97088.63
2022-12-11T18:44:45.600Z,97091.28
2022-12-11T18:47:55.921Z,97087.34
2022-12-11T18:51:01.936Z,97087.75
2022-12-11T18:54:09.820Z,97081.59
2022-12-11T18:57:18.102Z,97098.06
2022-12-11T19:00:25.247Z,97105.94
2022-12-11T19:03:30.981Z,97099.25
2022-12-11T19:06:38.336Z,97062.97
2022-12-11T19:09:48.126Z,97101.47
2022-12-11T19:12:57.535Z,97100.97
2022-12-11T19:16:23.086Z,97095.53
2022-12-11T19:19:31.442Z,97085.69
2022-12-11T19:22:37.700Z,97084.19
2022-12-11T19:25:46.908Z,97080.47
2022-12-11T19:28:57.051Z,97092.44
2022-12-11T19:32:05.809Z,97079.47
2022-12-11T19:35:12.104Z,97040.34
2022-12-11T19:38:18.726Z,97092.09
2022-12-11T19:41:28.063Z,97084.75
2022-12-11T19:44:37.021Z,97091.03
2022-12-11T19:47:42.568Z,97086.81
2022-12-11T19:50:50.183Z,97090.19
2022-12-11T19:53:56.000Z,97085.03
2022-12-11T19:57:02.441Z,97077.69
2022-12-11T20:00:14.615Z,97090.03
2022-12-11T20:03:22.208Z,97086.53
2022-12-11T20:06:29.623Z,97083.97
2022-12-11T20:09:40.562Z,97096.06
2022-12-11T20:12:46.606Z,97094.59
2022-12-11T20:15:55.676Z,97093.75
2022-12-11T20:19:01.331Z,97086.09
2022-12-11T20:22:07.753Z,97100.09
2022-12-11T20:25:13.706Z,97097.94
2022-12-11T20:28:20.208Z,97110.53
2022-12-11T20:31:29.852Z,97103.88
2022-12-11T20:34:36.351Z,97108.34
2022-12-11T20:37:42.915Z,97108.88
2022-12-11T20:40:49.415Z,97105.47
2022-12-11T20:43:56.240Z,97097.88
2022-12-11T20:47:06.863Z,97103.16
2022-12-11T20:50:13.053Z,97108.13
2022-12-11T20:53:19.385Z,97102.00
2022-12-11T20:56:25.873Z,97103.31
2022-12-11T20:59:32.618Z,97111.47
2022-12-11T21:02:41.021Z,97109.16
2022-12-11T21:05:50.270Z,97115.28
2022-12-11T21:08:58.973Z,97103.22
2022-12-11T21:12:05.921Z,97104.97
2022-12-11T21:15:14.274Z,97102.34
2022-12-11T21:18:23.536Z,97098.72
2022-12-11T21:21:29.241Z,97105.94
2022-12-11T21:24:36.183Z,97103.50
2022-12-11T21:27:42.033Z,97108.53
2022-12-11T21:30:51.744Z,97104.06
2022-12-11T21:34:00.257Z,97099.59
2022-12-11T21:37:06.700Z,97096.06
2022-12-11T21:40:14.488Z,97084.13
2022-12-11T21:43:20.945Z,97091.59
2022-12-11T21:46:28.907Z,97097.97
2022-12-11T21:49:37.915Z,97100.31
2022-12-11T21:52:43.729Z,97095.28
2022-12-11T21:55:50.026Z,97090.25
2022-12-11T21:59:01.538Z,97092.00
2022-12-11T22:02:08.070Z,97088.50
2022-12-11T22:05:16.341Z,97090.81
2022-12-11T22:08:22.800Z,97096.25
2022-12-11T22:11:34.338Z,97098.81
2022-12-11T22:14:40.692Z,97090.94
2022-12-11T22:17:47.599Z,97097.34
2022-12-11T22:20:57.726Z,97092.28
2022-12-11T22:24:03.403Z,97087.56
2022-12-11T22:27:10.320Z,97094.09
2022-12-11T22:30:17.175Z,97089.59
2022-12-11T22:33:23.587Z,97083.63
2022-12-11T22:36:31.828Z,97086.78
2022-12-11T22:39:38.389Z,97092.75
2022-12-11T22:42:44.262Z,97091.78
2022-12-11T22:45:50.722Z,97093.13
2022-12-11T22:48:57.307Z,97089.78
2022-12-11T22:52:06.591Z,97093.56
2022-12-11T22:55:12.743Z,97088.78
2022-12-11T22:58:21.921Z,97093.66
2022-12-11T23:01:30.401Z,97085.94
2022-12-11T23:04:36.835Z,97074.41
2022-12-11T23:07:45.090Z,97075.91
2022-12-11T23:10:51.546Z,97073.31
2022-12-11T23:13:58.642Z,97072.06
2022-12-11T23:17:05.583Z,97075.88
2022-12-11T23:20:13.259Z,97070.31
2022-12-11T23:23:22.055Z,97068.00
2022-12-11T23:26:29.319Z,97083.88
2022-12-11T23:29:36.024Z,97071.56
2022-12-11T23:32:41.585Z,97075.25
2022-12-11T23:35:48.183Z,97074.03
2022-12-11T23:38:57.834Z,97075.09
2022-12-11T23:42:04.257Z,97055.13
2022-12-11T23:45:11.899Z,97069.94
2022-12-11T23:48:18.736Z,97068.31
2022-12-11T23:51:26.639Z,97071.72
2022-12-11T23:54:36.317Z,97064.69
2022-12-11T23:57:44.363Z,97066.44
